Back to Top

Language: 

My Weather Underground Personal Weather Station Historical Data with Graphs...

Delerius Weather Station Historical Data
Daily Summary for July 31, 2017 Units:  Metric    English   Both
« Previous Day
Next Day »
Daily Weekly Monthly Yearly Custom
  High: Low: Average:
Temperature: 20.7 °C 12.8 °C 16 °C
Dew Point: 15.2 °C 10.4 °C 11.3 °C
Humidity: 91 % 55 % 75 %
Wind Speed: 22.5 km/h 1.6 km/h 12.9 km/h
Wind Gust: 40.2 km/h - -
Wind:- - SW
Pressure: 1010.7 hPa 1004.3 hPa -
Precipitation: 2.29 mm    
Historical Graphs
 
 
Tabular Data for July 31, 2017
Time Temperature Dew Point Pressure Wind Wind Speed Wind Gust Humidity Rainfall Rate (Hourly) solar Conditions
00:01 14 °C 11.5 °C 1004.6 hPa SSW 4.8 km/h 14.5 km/h 85 % 0 mm 0 W/m2
00:06 13.9 °C 11.4 °C 1004.6 hPa SSW 4.8 km/h 9.7 km/h 85 % 0 mm 0 W/m2
00:11 13.8 °C 11.5 °C 1004.6 hPa SSW 4.8 km/h 11.3 km/h 86 % 0 mm 0 W/m2
00:16 13.8 °C 11.5 °C 1004.6 hPa SSW 3.2 km/h 11.3 km/h 86 % 0 mm 0 W/m2
00:21 13.7 °C 11.6 °C 1004.6 hPa SSW 1.6 km/h 6.4 km/h 87 % 0 mm 0 W/m2
00:26 13.6 °C 11.5 °C 1004.6 hPa SSW 1.6 km/h 9.7 km/h 87 % 0 mm 0 W/m2
00:31 13.6 °C 11.7 °C 1004.6 hPa SSW 1.6 km/h 9.7 km/h 88 % 0 mm 0 W/m2
00:36 13.6 °C 11.7 °C 1004.3 hPa SSW 1.6 km/h 11.3 km/h 88 % 0 mm 0 W/m2
00:41 13.5 °C 11.6 °C 1004.3 hPa SSW 3.2 km/h 12.9 km/h 88 % 0 mm 0 W/m2
00:46 13.5 °C 11.6 °C 1004.3 hPa SSW 6.4 km/h 12.9 km/h 88 % 0 mm 0 W/m2
00:51 13.4 °C 11.4 °C 1004.3 hPa SSW 8 km/h 14.5 km/h 88 % 0 mm 0 W/m2
00:56 13.5 °C 11.6 °C 1004.3 hPa SSW 9.7 km/h 17.7 km/h 88 % 0 mm 0 W/m2
01:01 13.4 °C 11.4 °C 1004.3 hPa SW 11.3 km/h 17.7 km/h 88 % 0 mm 0 W/m2
01:06 13.4 °C 11.3 °C 1004.3 hPa SW 9.7 km/h 19.3 km/h 87 % 0 mm 0 W/m2
01:11 13.5 °C 11.4 °C 1004.3 hPa SW 9.7 km/h 19.3 km/h 87 % 0 mm 0 W/m2
01:16 13.5 °C 11.4 °C 1004.3 hPa SW 11.3 km/h 19.3 km/h 87 % 0 mm 0 W/m2
01:21 13.5 °C 11.2 °C 1004.3 hPa SW 11.3 km/h 19.3 km/h 86 % 0 mm 0 W/m2
01:26 13.4 °C 11.1 °C 1004.3 hPa SW 11.3 km/h 17.7 km/h 86 % 0 mm 0 W/m2
01:31 13.4 °C 11.1 °C 1004.3 hPa SW 12.9 km/h 24.1 km/h 86 % 0 mm 0 W/m2
01:36 13.5 °C 11.2 °C 1004.3 hPa SW 14.5 km/h 29 km/h 86 % 0 mm 0 W/m2
01:41 13.4 °C 11.1 °C 1004.3 hPa SW 12.9 km/h 29 km/h 86 % 0 mm 0 W/m2
01:46 13.4 °C 11.1 °C 1004.3 hPa SW 11.3 km/h 17.7 km/h 86 % 0 mm 0 W/m2
01:51 13.3 °C 11 °C 1004.3 hPa SW 11.3 km/h 17.7 km/h 86 % 0 mm 0 W/m2
01:57 13.3 °C 11 °C 1004.3 hPa SW 11.3 km/h 19.3 km/h 86 % 0 mm 0 W/m2
02:02 13.3 °C 11 °C 1004.3 hPa SW 11.3 km/h 24.1 km/h 86 % 0 mm 0 W/m2
02:07 13.3 °C 11 °C 1004.6 hPa SSW 11.3 km/h 25.7 km/h 86 % 0 mm 0 W/m2
02:12 13.3 °C 11 °C 1004.3 hPa SSW 12.9 km/h 25.7 km/h 86 % 0 mm 0 W/m2
02:17 13.3 °C 11 °C 1004.3 hPa SSW 11.3 km/h 19.3 km/h 86 % 0 mm 0 W/m2
02:22 13.3 °C 11 °C 1004.3 hPa SSW 12.9 km/h 20.9 km/h 86 % 0 mm 0 W/m2
02:27 13.3 °C 11 °C 1004.3 hPa SSW 12.9 km/h 24.1 km/h 86 % 0 mm 0 W/m2
02:32 13.3 °C 11 °C 1004.3 hPa SSW 12.9 km/h 24.1 km/h 86 % 0 mm 0 W/m2
02:37 13.3 °C 11 °C 1004.3 hPa SSW 11.3 km/h 19.3 km/h 86 % 0 mm 0 W/m2
02:42 13.3 °C 11 °C 1004.3 hPa SSW 11.3 km/h 19.3 km/h 86 % 0 mm 0 W/m2
02:47 13.3 °C 11 °C 1004.3 hPa SSW 11.3 km/h 17.7 km/h 86 % 0 mm 0 W/m2
02:52 13.2 °C 10.9 °C 1004.3 hPa SSW 11.3 km/h 19.3 km/h 86 % 0 mm 0 W/m2
02:57 13.2 °C 10.9 °C 1004.3 hPa SW 12.9 km/h 24.1 km/h 86 % 0 mm 0 W/m2
03:02 13.2 °C 10.9 °C 1004.3 hPa SW 12.9 km/h 24.1 km/h 86 % 0 mm 0 W/m2
03:07 13.3 °C 11 °C 1004.3 hPa SW 14.5 km/h 25.7 km/h 86 % 0 mm 0 W/m2
03:12 13.3 °C 11 °C 1004.3 hPa SW 17.7 km/h 29 km/h 86 % 0 mm 0 W/m2
03:17 13.3 °C 11 °C 1004.3 hPa SW 16.1 km/h 29 km/h 86 % 0 mm 0 W/m2
03:22 13.3 °C 11 °C 1004.3 hPa SW 14.5 km/h 29 km/h 86 % 0 mm 0 W/m2
03:27 13.2 °C 10.9 °C 1004.3 hPa SW 14.5 km/h 29 km/h 86 % 0 mm 0 W/m2
03:32 13.2 °C 10.9 °C 1004.3 hPa SW 14.5 km/h 29 km/h 86 % 0 mm 0 W/m2
03:37 13.2 °C 10.9 °C 1004.3 hPa SW 12.9 km/h 24.1 km/h 86 % 0 mm 0 W/m2
03:42 13.2 °C 10.9 °C 1004.3 hPa SW 14.5 km/h 29 km/h 86 % 0 mm 0 W/m2
03:47 13.3 °C 11 °C 1004.6 hPa SW 17.7 km/h 30.6 km/h 86 % 0 mm 0 W/m2
03:52 13.3 °C 11 °C 1004.6 hPa SW 17.7 km/h 30.6 km/h 86 % 0 mm 0 W/m2
03:57 13.3 °C 11 °C 1004.3 hPa SW 16.1 km/h 29 km/h 86 % 0 mm 0 W/m2
04:02 13.4 °C 11.1 °C 1004.6 hPa SW 16.1 km/h 29 km/h 86 % 0 mm 0 W/m2
04:07 13.4 °C 10.9 °C 1004.6 hPa SW 17.7 km/h 29 km/h 85 % 0 mm 0 W/m2
04:12 13.4 °C 10.9 °C 1004.6 hPa SW 14.5 km/h 24.1 km/h 85 % 0 mm 0 W/m2
04:17 13.4 °C 10.9 °C 1004.6 hPa SW 12.9 km/h 22.5 km/h 85 % 0 mm 0 W/m2
04:22 13.4 °C 10.9 °C 1004.6 hPa SW 12.9 km/h 24.1 km/h 85 % 0 mm 0 W/m2
04:27 13.4 °C 10.9 °C 1004.6 hPa WSW 12.9 km/h 24.1 km/h 85 % 0 mm 0 W/m2
04:32 13.4 °C 10.9 °C 1004.6 hPa WSW 11.3 km/h 20.9 km/h 85 % 0 mm 0 W/m2
04:37 13.4 °C 10.9 °C 1005 hPa WSW 11.3 km/h 20.9 km/h 85 % 0 mm 0 W/m2
04:42 13.4 °C 10.9 °C 1004.6 hPa WSW 9.7 km/h 19.3 km/h 85 % 0 mm 0 W/m2
04:47 13.4 °C 10.9 °C 1005 hPa SW 9.7 km/h 19.3 km/h 85 % 0 mm 0 W/m2
04:52 13.3 °C 10.8 °C 1005 hPa SW 9.7 km/h 17.7 km/h 85 % 0 mm 0 W/m2
04:57 13.3 °C 10.8 °C 1005 hPa SW 9.7 km/h 17.7 km/h 85 % 0 mm 0 W/m2
05:02 13.2 °C 10.7 °C 1005 hPa SW 6.4 km/h 14.5 km/h 85 % 0 mm 0 W/m2
05:07 13.1 °C 10.6 °C 1005 hPa SW 6.4 km/h 14.5 km/h 85 % 0 mm 0 W/m2
05:12 13.1 °C 10.6 °C 1005 hPa SW 6.4 km/h 14.5 km/h 85 % 0 mm 0 W/m2
05:17 13 °C 10.7 °C 1005.3 hPa SW 6.4 km/h 16.1 km/h 86 % 0 mm 5 W/m2
05:22 13 °C 10.7 °C 1005.3 hPa SW 8 km/h 16.1 km/h 86 % 0 mm 5 W/m2
05:27 12.9 °C 10.6 °C 1005.3 hPa SW 6.4 km/h 16.1 km/h 86 % 0 mm 7 W/m2
05:32 12.9 °C 10.6 °C 1005.3 hPa SW 6.4 km/h 16.1 km/h 86 % 0 mm 9 W/m2
05:37 12.9 °C 10.6 °C 1005.3 hPa SW 4.8 km/h 11.3 km/h 86 % 0 mm 14 W/m2
05:42 12.9 °C 10.6 °C 1005.6 hPa SW 4.8 km/h 11.3 km/h 86 % 0 mm 18 W/m2
05:47 12.8 °C 10.5 °C 1005.6 hPa SW 6.4 km/h 12.9 km/h 86 % 0 mm 25 W/m2
05:52 12.8 °C 10.5 °C 1005.6 hPa SW 8 km/h 14.5 km/h 86 % 0 mm 35 W/m2
05:57 12.8 °C 10.5 °C 1005.6 hPa SW 8 km/h 14.5 km/h 86 % 0 mm 42 W/m2
06:02 12.8 °C 10.5 °C 1005.6 hPa SW 8 km/h 16.1 km/h 86 % 0 mm 46 W/m2
06:07 12.8 °C 10.5 °C 1005.6 hPa SW 9.7 km/h 16.1 km/h 86 % 0 mm 47 W/m2
06:12 12.9 °C 10.6 °C 1005.6 hPa SW 8 km/h 16.1 km/h 86 % 0 mm 49 W/m2
06:17 12.9 °C 10.4 °C 1005.6 hPa SW 8 km/h 16.1 km/h 85 % 0 mm 44 W/m2
06:22 12.9 °C 10.4 °C 1005.6 hPa SW 6.4 km/h 14.5 km/h 85 % 0 mm 44 W/m2
06:27 13.1 °C 10.6 °C 1005.6 hPa SW 8 km/h 11.3 km/h 85 % 0 mm 125 W/m2
06:28 13.1 °C 10.6 °C 1005.6 hPa SW 8 km/h 11.3 km/h 85 % 0 mm 81 W/m2
06:33 13.1 °C 10.4 °C 1005.6 hPa SW 8 km/h 16.1 km/h 84 % 0 mm 39 W/m2
06:38 13.1 °C 10.4 °C 1006 hPa SW 8 km/h 16.1 km/h 84 % 0 mm 33 W/m2
06:43 13.1 °C 10.4 °C 1006 hPa SW 8 km/h 14.5 km/h 84 % 0 mm 47 W/m2
06:48 13.1 °C 10.4 °C 1006 hPa SW 8 km/h 14.5 km/h 84 % 0 mm 47 W/m2
06:53 13.1 °C 10.4 °C 1006.3 hPa SW 8 km/h 14.5 km/h 84 % 0 mm 54 W/m2
06:58 13.1 °C 10.4 °C 1006.3 hPa SSW 9.7 km/h 16.1 km/h 84 % 0 mm 40 W/m2
07:03 13.2 °C 10.6 °C 1006.3 hPa SW 8 km/h 16.1 km/h 84 % 0 mm 56 W/m2
07:08 13.3 °C 10.7 °C 1006.3 hPa SW 8 km/h 14.5 km/h 84 % 0 mm 51 W/m2
07:13 13.4 °C 10.8 °C 1006.3 hPa SSW 8 km/h 14.5 km/h 84 % 0 mm 213 W/m2
07:19 13.7 °C 10.9 °C 1006.3 hPa SW 8 km/h 14.5 km/h 83 % 0 mm 272 W/m2
07:24 13.8 °C 10.8 °C 1006.3 hPa SW 12.9 km/h 22.5 km/h 82 % 0 mm 322 W/m2
07:29 14 °C 10.8 °C 1006.3 hPa SW 16.1 km/h 29 km/h 81 % 0 mm 315 W/m2
07:34 14.1 °C 10.7 °C 1006.3 hPa SW 16.1 km/h 29 km/h 80 % 0 mm 174 W/m2
07:39 14.2 °C 10.8 °C 1006.7 hPa SW 14.5 km/h 29 km/h 80 % 0 mm 176 W/m2
07:44 14.1 °C 10.7 °C 1006.7 hPa SW 14.5 km/h 20.9 km/h 80 % 0 mm 185 W/m2
07:49 14.1 °C 10.7 °C 1006.7 hPa SW 14.5 km/h 24.1 km/h 80 % 0 mm 276 W/m2
07:54 14.2 °C 11 °C 1006.7 hPa SW 14.5 km/h 25.7 km/h 81 % 0 mm 408 W/m2
07:59 14.2 °C 10.8 °C 1006.7 hPa SW 14.5 km/h 25.7 km/h 80 % 0 mm 118 W/m2
08:04 14.2 °C 10.8 °C 1006.7 hPa SW 14.5 km/h 24.1 km/h 80 % 0 mm 107 W/m2
08:09 14.2 °C 11 °C 1006.7 hPa SW 11.3 km/h 20.9 km/h 81 % 0 mm 380 W/m2
08:14 14.4 °C 11 °C 1006.7 hPa SW 12.9 km/h 33.8 km/h 80 % 0 mm 378 W/m2
08:19 14.7 °C 11.3 °C 1006.7 hPa SW 17.7 km/h 33.8 km/h 80 % 0 mm 388 W/m2
08:24 14.8 °C 11 °C 1007 hPa SW 19.3 km/h 35.4 km/h 78 % 0 mm 403 W/m2
08:29 14.9 °C 11.1 °C 1007 hPa SW 19.3 km/h 35.4 km/h 78 % 0 mm 438 W/m2
08:34 15.1 °C 11.1 °C 1007 hPa SW 19.3 km/h 35.4 km/h 77 % 0 mm 499 W/m2
08:39 15.3 °C 11.3 °C 1007 hPa SW 19.3 km/h 32.2 km/h 77 % 0 mm 547 W/m2
08:44 15.4 °C 11 °C 1007 hPa SW 19.3 km/h 33.8 km/h 75 % 0 mm 619 W/m2
08:49 15.7 °C 11.3 °C 1007 hPa SW 19.3 km/h 33.8 km/h 75 % 0 mm 276 W/m2
08:54 15.9 °C 11.7 °C 1007 hPa SW 16.1 km/h 24.1 km/h 76 % 0 mm 626 W/m2
08:59 16 °C 11.6 °C 1007 hPa SSW 14.5 km/h 24.1 km/h 75 % 0 mm 575 W/m2
09:04 16.2 °C 11.6 °C 1007 hPa SSW 16.1 km/h 25.7 km/h 74 % 0 mm 497 W/m2
09:09 16.3 °C 11.7 °C 1007 hPa SSW 16.1 km/h 25.7 km/h 74 % 0 mm 698 W/m2
09:14 16.6 °C 11.9 °C 1007 hPa SSW 16.1 km/h 25.7 km/h 74 % 0 mm 601 W/m2
09:19 16.6 °C 11.6 °C 1007 hPa SSW 16.1 km/h 24.1 km/h 72 % 0 mm 626 W/m2
09:24 16.4 °C 11.3 °C 1007 hPa SSW 16.1 km/h 24.1 km/h 72 % 0 mm 269 W/m2
09:29 16.3 °C 11.4 °C 1007 hPa SW 14.5 km/h 24.1 km/h 73 % 0 mm 336 W/m2
09:34 16.4 °C 11.3 °C 1007 hPa SW 14.5 km/h 30.6 km/h 72 % 0 mm 373 W/m2
09:39 16.4 °C 11.3 °C 1007 hPa SW 17.7 km/h 30.6 km/h 72 % 0 mm 529 W/m2
09:44 16.5 °C 11.7 °C 1007 hPa SW 17.7 km/h 30.6 km/h 73 % 0 mm 424 W/m2
09:49 16.7 °C 11.6 °C 1007.3 hPa SW 14.5 km/h 25.7 km/h 72 % 0 mm 415 W/m2
09:54 16.9 °C 11.8 °C 1007 hPa SW 14.5 km/h 25.7 km/h 72 % 0 mm 703 W/m2
09:59 16.9 °C 11.6 °C 1007 hPa SW 14.5 km/h 29 km/h 71 % 0 mm 200 W/m2
10:04 16.8 °C 11.3 °C 1007 hPa SW 16.1 km/h 30.6 km/h 70 % 0 mm 315 W/m2
10:09 16.9 °C 11.6 °C 1007.3 hPa WSW 14.5 km/h 30.6 km/h 71 % 0 mm 195 W/m2
10:12 16.9 °C 11.2 °C 1007.3 hPa WSW 17.7 km/h 32.2 km/h 69 % 0 mm 241 W/m2
10:17 16.9 °C 11.2 °C 1007.3 hPa WSW 17.7 km/h 32.2 km/h 69 % 0 mm 137 W/m2
10:22 16.7 °C 11 °C 1007 hPa WSW 17.7 km/h 30.6 km/h 69 % 0 mm 199 W/m2
10:27 16.8 °C 11.3 °C 1007.3 hPa WSW 17.7 km/h 30.6 km/h 70 % 0 mm 255 W/m2
10:32 17 °C 11.1 °C 1007 hPa WSW 19.3 km/h 35.4 km/h 68 % 0 mm 158 W/m2
10:37 17.1 °C 11.2 °C 1007.3 hPa WSW 22.5 km/h 37 km/h 68 % 0 mm 775 W/m2
10:42 17.2 °C 11 °C 1007 hPa SW 22.5 km/h 37 km/h 67 % 0 mm 766 W/m2
10:47 17.4 °C 11.7 °C 1007 hPa SW 19.3 km/h 35.4 km/h 69 % 0 mm 805 W/m2
10:51 17.8 °C 11.6 °C 1007 hPa SW 19.3 km/h 33.8 km/h 67 % 0 mm 870 W/m2
10:56 18 °C 11.3 °C 1007.3 hPa SW 19.3 km/h 38.6 km/h 65 % 0 mm 272 W/m2
11:01 17.9 °C 11 °C 1007 hPa SW 20.9 km/h 38.6 km/h 64 % 0 mm 396 W/m2
11:07 17.9 °C 11 °C 1007 hPa WSW 20.9 km/h 35.4 km/h 64 % 0 mm 508 W/m2
11:11 18.1 °C 10.9 °C 1007.3 hPa WSW 20.9 km/h 33.8 km/h 63 % 0 mm 434 W/m2
11:16 17.9 °C 11 °C 1007.3 hPa WSW 22.5 km/h 37 km/h 64 % 0 mm 274 W/m2
11:22 17.8 °C 10.9 °C 1007.3 hPa SW 22.5 km/h 37 km/h 64 % 0 mm 970 W/m2
11:27 18 °C 11.1 °C 1007.3 hPa SW 20.9 km/h 40.2 km/h 64 % 0 mm 357 W/m2
11:32 18.1 °C 10.9 °C 1007.3 hPa SW 22.5 km/h 40.2 km/h 63 % 0 mm 214 W/m2
11:37 17.9 °C 11.2 °C 1007.3 hPa SW 20.9 km/h 38.6 km/h 65 % 0 mm 257 W/m2
11:42 18.1 °C 11.4 °C 1007.3 hPa SW 17.7 km/h 38.6 km/h 65 % 0 mm 446 W/m2
11:47 18.1 °C 10.9 °C 1007.3 hPa SW 17.7 km/h 33.8 km/h 63 % 0 mm 218 W/m2
11:52 18.1 °C 10.9 °C 1007.3 hPa SW 17.7 km/h 33.8 km/h 63 % 0 mm 125 W/m2
11:57 17.9 °C 10.5 °C 1007.3 hPa SW 17.7 km/h 33.8 km/h 62 % 0 mm 104 W/m2
12:02 17.7 °C 10.6 °C 1007.3 hPa SW 19.3 km/h 33.8 km/h 63 % 0 mm 216 W/m2
12:07 17.8 °C 11.1 °C 1007.3 hPa SW 17.7 km/h 30.6 km/h 65 % 0 mm 232 W/m2
12:12 17.9 °C 11 °C 1007.3 hPa SW 19.3 km/h 30.6 km/h 64 % 0 mm 151 W/m2
12:17 17.8 °C 10.7 °C 1007.3 hPa SW 19.3 km/h 30.6 km/h 63 % 0 mm 153 W/m2
12:22 17.7 °C 10.8 °C 1007.3 hPa SW 16.1 km/h 32.2 km/h 64 % 0 mm 221 W/m2
12:27 17.7 °C 10.8 °C 1007.3 hPa SW 17.7 km/h 32.2 km/h 64 % 0 mm 135 W/m2
12:32 17.6 °C 10.9 °C 1007.3 hPa SW 19.3 km/h 35.4 km/h 65 % 0 mm 98 W/m2
12:37 17.4 °C 11 °C 1007.7 hPa SW 19.3 km/h 35.4 km/h 66 % 0 mm 104 W/m2
12:42 17.2 °C 11.7 °C 1007.7 hPa SW 17.7 km/h 33.8 km/h 70 % 0 mm 176 W/m2
12:47 17.1 °C 12.2 °C 1007.7 hPa SW 14.5 km/h 25.7 km/h 73 % 0 mm 299 W/m2
12:52 17.3 °C 12.6 °C 1007.3 hPa SW 9.7 km/h 16.1 km/h 74 % 0 mm 997 W/m2
12:57 17.6 °C 12.1 °C 1007.3 hPa SW 9.7 km/h 19.3 km/h 70 % 0 mm 353 W/m2
13:02 17.9 °C 11.9 °C 1007.3 hPa SW 11.3 km/h 29 km/h 68 % 0 mm 243 W/m2
13:07 18 °C 11.3 °C 1007.3 hPa SW 16.1 km/h 32.2 km/h 65 % 0 mm 223 W/m2
13:12 18.1 °C 11.2 °C 1007.3 hPa SSW 19.3 km/h 32.2 km/h 64 % 0 mm 216 W/m2
13:17 18.3 °C 11.8 °C 1007.3 hPa SW 16.1 km/h 29 km/h 66 % 0 mm 313 W/m2
13:22 18.7 °C 11.7 °C 1007.3 hPa SW 14.5 km/h 29 km/h 64 % 0 mm 1195 W/m2
13:27 19.3 °C 12.1 °C 1007.3 hPa SSW 14.5 km/h 29 km/h 63 % 0 mm 1150 W/m2
13:32 19.7 °C 11.4 °C 1007.3 hPa SSW 16.1 km/h 29 km/h 59 % 0 mm 424 W/m2
13:37 19.6 °C 11.4 °C 1007.3 hPa SSW 17.7 km/h 29 km/h 59 % 0 mm 223 W/m2
13:42 19.3 °C 11.3 °C 1007.7 hPa SW 16.1 km/h 29 km/h 60 % 0 mm 109 W/m2
13:47 19.1 °C 12.6 °C 1007.7 hPa SW 14.5 km/h 24.1 km/h 66 % 0.25 mm 67 W/m2
13:52 18.2 °C 13.1 °C 1008 hPa WSW 14.5 km/h 25.7 km/h 72 % 0.51 mm 79 W/m2
13:57 16.8 °C 12.7 °C 1008.4 hPa WSW 17.7 km/h 32.2 km/h 77 % 1.78 mm 125 W/m2
14:02 15.8 °C 12.7 °C 1008.4 hPa WSW 19.3 km/h 32.2 km/h 82 % 2.29 mm 199 W/m2
14:07 15.4 °C 12.9 °C 1008 hPa WSW 16.1 km/h 24.1 km/h 85 % 2.29 mm 199 W/m2
14:12 15.2 °C 12.9 °C 1008 hPa WSW 12.9 km/h 20.9 km/h 86 % 2.29 mm 178 W/m2
14:17 15 °C 12.7 °C 1008 hPa WSW 14.5 km/h 25.7 km/h 86 % 2.29 mm 246 W/m2
14:22 14.9 °C 12.9 °C 1008 hPa SW 14.5 km/h 25.7 km/h 88 % 2.29 mm 438 W/m2
14:27 15.3 °C 13.7 °C 1008 hPa SW 11.3 km/h 20.9 km/h 90 % 2.29 mm 1039 W/m2
14:32 15.7 °C 14.2 °C 1008 hPa SW 8 km/h 17.7 km/h 91 % 2.29 mm 1009 W/m2
14:37 16.3 °C 14.8 °C 1008 hPa SSW 6.4 km/h 14.5 km/h 91 % 2.29 mm 1074 W/m2
14:42 16.8 °C 15.2 °C 1008 hPa SW 8 km/h 16.1 km/h 90 % 2.29 mm 1041 W/m2
14:47 17.2 °C 14.7 °C 1008 hPa SW 11.3 km/h 22.5 km/h 85 % 2.29 mm 986 W/m2
14:52 17.7 °C 14.8 °C 1008 hPa SW 14.5 km/h 22.5 km/h 83 % 1.78 mm 974 W/m2
14:57 18.1 °C 14.4 °C 1008 hPa WSW 14.5 km/h 33.8 km/h 79 % 0.51 mm 935 W/m2
15:02 18.4 °C 14.3 °C 1008 hPa SW 16.1 km/h 33.8 km/h 77 % 0.25 mm 909 W/m2
15:07 18.6 °C 13.7 °C 1008 hPa SW 17.7 km/h 33.8 km/h 73 % 0.25 mm 889 W/m2
15:12 18.9 °C 13.5 °C 1008 hPa SW 19.3 km/h 32.2 km/h 71 % 0.25 mm 998 W/m2
15:17 19.2 °C 13.4 °C 1008 hPa SW 19.3 km/h 32.2 km/h 69 % 0 mm 1035 W/m2
15:22 19.5 °C 13.7 °C 1008 hPa SW 17.7 km/h 29 km/h 69 % 0 mm 529 W/m2
15:27 19.5 °C 13 °C 1008 hPa SW 16.1 km/h 30.6 km/h 66 % 0 mm 1048 W/m2
15:32 19.7 °C 13.6 °C 1008 hPa SW 16.1 km/h 32.2 km/h 68 % 0 mm 846 W/m2
15:37 19.8 °C 13.1 °C 1007.7 hPa SW 14.5 km/h 32.2 km/h 65 % 0 mm 800 W/m2
15:42 19.7 °C 12.9 °C 1007.7 hPa SW 14.5 km/h 24.1 km/h 65 % 0 mm 854 W/m2
15:47 19.8 °C 12.8 °C 1008 hPa SSW 16.1 km/h 32.2 km/h 64 % 0 mm 754 W/m2
15:52 19.9 °C 12.7 °C 1007.7 hPa SSW 17.7 km/h 40.2 km/h 63 % 0 mm 675 W/m2
15:57 19.9 °C 12.4 °C 1007.7 hPa SW 19.3 km/h 40.2 km/h 62 % 0 mm 953 W/m2
16:02 19.9 °C 11.9 °C 1007.7 hPa SW 19.3 km/h 40.2 km/h 60 % 0 mm 294 W/m2
16:07 19.8 °C 12.1 °C 1007.7 hPa WSW 17.7 km/h 35.4 km/h 61 % 0 mm 754 W/m2
16:12 19.9 °C 11.9 °C 1008 hPa SW 19.3 km/h 32.2 km/h 60 % 0 mm 758 W/m2
16:14 20 °C 11.7 °C 1008 hPa SW 19.3 km/h 32.2 km/h 59 % 0 mm 744 W/m2
16:19 20.2 °C 11.7 °C 1008 hPa SW 19.3 km/h 32.2 km/h 58 % 0 mm 729 W/m2
16:24 20.3 °C 11.5 °C 1008 hPa WSW 19.3 km/h 32.2 km/h 57 % 0 mm 777 W/m2
16:29 20.4 °C 11.6 °C 1008 hPa WSW 19.3 km/h 33.8 km/h 57 % 0 mm 809 W/m2
16:34 20.6 °C 11.8 °C 1008 hPa WSW 17.7 km/h 35.4 km/h 57 % 0 mm 812 W/m2
16:35 20.6 °C 11.5 °C 1008 hPa WSW 17.7 km/h 35.4 km/h 56 % 0 mm 823 W/m2
16:41 20.7 °C 11.6 °C 1008 hPa SW 17.7 km/h 35.4 km/h 56 % 0 mm 749 W/m2
16:45 20.6 °C 11.8 °C 1008 hPa SW 19.3 km/h 38.6 km/h 57 % 0 mm 318 W/m2
16:51 20.3 °C 10.9 °C 1008 hPa SW 20.9 km/h 38.6 km/h 55 % 0 mm 265 W/m2
16:56 19.9 °C 10.8 °C 1008 hPa SW 20.9 km/h 35.4 km/h 56 % 0 mm 237 W/m2
17:01 19.7 °C 11.2 °C 1008 hPa SW 19.3 km/h 32.2 km/h 58 % 0 mm 218 W/m2
17:06 19.5 °C 11 °C 1008 hPa SW 14.5 km/h 30.6 km/h 58 % 0 mm 185 W/m2
17:10 19.4 °C 11.2 °C 1008 hPa SW 12.9 km/h 22.5 km/h 59 % 0 mm 413 W/m2
17:15 19.6 °C 11.6 °C 1008.4 hPa SW 12.9 km/h 22.5 km/h 60 % 0 mm 684 W/m2
17:20 19.8 °C 11.3 °C 1008 hPa SW 16.1 km/h 32.2 km/h 58 % 0 mm 534 W/m2
17:26 19.8 °C 10.8 °C 1008 hPa SW 17.7 km/h 32.2 km/h 56 % 0 mm 176 W/m2
17:31 19.6 °C 10.6 °C 1008.4 hPa SW 16.1 km/h 29 km/h 56 % 0 mm 155 W/m2
17:36 19.4 °C 10.4 °C 1008 hPa WSW 17.7 km/h 37 km/h 56 % 0 mm 188 W/m2
17:41 19.2 °C 10.4 °C 1008 hPa WSW 19.3 km/h 37 km/h 57 % 0 mm 179 W/m2
17:46 19.1 °C 10.7 °C 1008 hPa WSW 17.7 km/h 29 km/h 58 % 0 mm 171 W/m2
17:51 18.9 °C 10.4 °C 1008.4 hPa WSW 16.1 km/h 29 km/h 58 % 0 mm 142 W/m2
17:52 18.9 °C 10.7 °C 1008.4 hPa WSW 16.1 km/h 24.1 km/h 59 % 0 mm 137 W/m2
17:57 18.9 °C 10.9 °C 1008.4 hPa WSW 14.5 km/h 25.7 km/h 60 % 0 mm 142 W/m2
18:02 18.7 °C 10.8 °C 1008.4 hPa SW 16.1 km/h 30.6 km/h 60 % 0 mm 148 W/m2
18:07 18.6 °C 10.9 °C 1008.4 hPa SW 19.3 km/h 30.6 km/h 61 % 0 mm 327 W/m2
18:12 18.6 °C 10.7 °C 1008.4 hPa SW 19.3 km/h 30.6 km/h 60 % 0 mm 158 W/m2
18:17 18.4 °C 11 °C 1008.4 hPa SW 17.7 km/h 30.6 km/h 62 % 0 mm 123 W/m2
18:22 18.4 °C 11.2 °C 1008.4 hPa WSW 16.1 km/h 30.6 km/h 63 % 0 mm 130 W/m2
18:27 18.3 °C 11.4 °C 1008.4 hPa WSW 12.9 km/h 19.3 km/h 64 % 0 mm 111 W/m2
18:32 18.3 °C 11.4 °C 1008.4 hPa SW 11.3 km/h 20.9 km/h 64 % 0 mm 114 W/m2
18:37 18.2 °C 11.5 °C 1008.4 hPa SW 12.9 km/h 22.5 km/h 65 % 0 mm 120 W/m2
18:42 18.1 °C 11.7 °C 1008.4 hPa SW 12.9 km/h 22.5 km/h 66 % 0 mm 121 W/m2
18:47 18.1 °C 11.7 °C 1008.4 hPa SW 12.9 km/h 19.3 km/h 66 % 0 mm 102 W/m2
18:52 18 °C 11.8 °C 1008.4 hPa SW 11.3 km/h 17.7 km/h 67 % 0 mm 104 W/m2
18:57 17.9 °C 11.7 °C 1008.7 hPa SW 11.3 km/h 16.1 km/h 67 % 0 mm 91 W/m2
19:02 17.9 °C 11.7 °C 1008.7 hPa SW 11.3 km/h 17.7 km/h 67 % 0 mm 65 W/m2
19:08 17.8 °C 11.6 °C 1008.7 hPa WSW 11.3 km/h 19.3 km/h 67 % 0 mm 56 W/m2
19:13 17.8 °C 11.3 °C 1008.7 hPa WSW 11.3 km/h 22.5 km/h 66 % 0 mm 53 W/m2
19:18 17.7 °C 10.8 °C 1009 hPa WSW 12.9 km/h 22.5 km/h 64 % 0 mm 49 W/m2
19:23 17.7 °C 10.8 °C 1009 hPa WSW 16.1 km/h 24.1 km/h 64 % 0 mm 42 W/m2
19:28 17.6 °C 10.7 °C 1009 hPa WSW 14.5 km/h 24.1 km/h 64 % 0 mm 39 W/m2
19:33 17.5 °C 10.8 °C 1009 hPa WSW 12.9 km/h 20.9 km/h 65 % 0 mm 81 W/m2
19:34 17.5 °C 10.8 °C 1009 hPa WSW 12.9 km/h 20.9 km/h 65 % 0 mm 91 W/m2
19:39 17.4 °C 10.7 °C 1009.4 hPa WSW 11.3 km/h 19.3 km/h 65 % 0 mm 54 W/m2
19:44 17.4 °C 10.7 °C 1009.4 hPa WSW 11.3 km/h 20.9 km/h 65 % 0 mm 30 W/m2
19:49 17.3 °C 10.7 °C 1009.4 hPa SW 11.3 km/h 20.9 km/h 65 % 0 mm 30 W/m2
19:55 17.2 °C 10.8 °C 1009.4 hPa SW 9.7 km/h 17.7 km/h 66 % 0 mm 35 W/m2
20:00 17.1 °C 10.9 °C 1009.4 hPa SW 9.7 km/h 14.5 km/h 67 % 0 mm 32 W/m2
20:05 17 °C 11.1 °C 1009.4 hPa SW 8 km/h 14.5 km/h 68 % 0 mm 30 W/m2
20:10 16.9 °C 11.2 °C 1009.4 hPa SW 8 km/h 12.9 km/h 69 % 0 mm 25 W/m2
20:15 16.9 °C 11.2 °C 1009.4 hPa SW 8 km/h 19.3 km/h 69 % 0 mm 23 W/m2
20:20 16.8 °C 11.1 °C 1009.4 hPa SW 9.7 km/h 19.3 km/h 69 % 0 mm 32 W/m2
20:25 16.7 °C 11.2 °C 1009.4 hPa SW 9.7 km/h 19.3 km/h 70 % 0 mm 37 W/m2
20:30 16.7 °C 11.4 °C 1009.4 hPa SW 9.7 km/h 19.3 km/h 71 % 0 mm 21 W/m2
20:35 16.6 °C 11.3 °C 1009.4 hPa SW 9.7 km/h 17.7 km/h 71 % 0 mm 16 W/m2
20:40 16.6 °C 11.3 °C 1009.4 hPa SW 11.3 km/h 19.3 km/h 71 % 0 mm 14 W/m2
20:45 16.5 °C 11.4 °C 1009.4 hPa SW 11.3 km/h 19.3 km/h 72 % 0 mm 12 W/m2
20:50 16.4 °C 11.3 °C 1009.4 hPa SW 9.7 km/h 17.7 km/h 72 % 0 mm 9 W/m2
20:55 16.4 °C 11.6 °C 1009.7 hPa SW 9.7 km/h 16.1 km/h 73 % 0 mm 7 W/m2
21:00 16.3 °C 11.4 °C 1009.7 hPa SSW 9.7 km/h 14.5 km/h 73 % 0 mm 5 W/m2
21:05 16.2 °C 11.6 °C 1009.7 hPa SSW 9.7 km/h 16.1 km/h 74 % 0 mm 0 W/m2
21:10 16.1 °C 11.4 °C 1010 hPa SSW 9.7 km/h 16.1 km/h 74 % 0 mm 0 W/m2
21:15 16 °C 11.4 °C 1010 hPa SSW 8 km/h 14.5 km/h 74 % 0 mm 0 W/m2
21:20 15.9 °C 11.4 °C 1010 hPa SW 8 km/h 14.5 km/h 75 % 0 mm 0 W/m2
21:25 15.8 °C 11.4 °C 1010 hPa SW 9.7 km/h 14.5 km/h 75 % 0 mm 0 W/m2
21:31 15.7 °C 11.5 °C 1010 hPa SW 8 km/h 12.9 km/h 76 % 0 mm 0 W/m2
21:36 15.6 °C 11.4 °C 1010 hPa SW 6.4 km/h 11.3 km/h 76 % 0 mm 0 W/m2
21:41 15.5 °C 11.5 °C 1010 hPa SW 6.4 km/h 11.3 km/h 77 % 0 mm 0 W/m2
21:46 15.4 °C 11.4 °C 1010 hPa SW 6.4 km/h 11.3 km/h 77 % 0 mm 0 W/m2
21:51 15.3 °C 11.3 °C 1010.4 hPa SSW 6.4 km/h 9.7 km/h 77 % 0 mm 0 W/m2
21:56 15.3 °C 11.5 °C 1010 hPa SW 6.4 km/h 11.3 km/h 78 % 0 mm 0 W/m2
22:01 15.3 °C 11.5 °C 1010.4 hPa SW 3.2 km/h 11.3 km/h 78 % 0 mm 0 W/m2
22:06 15.3 °C 11.3 °C 1010.4 hPa SW 1.6 km/h 9.7 km/h 77 % 0 mm 0 W/m2
22:11 15.3 °C 11.3 °C 1010.4 hPa SW 4.8 km/h 11.3 km/h 77 % 0 mm 0 W/m2
22:16 15.3 °C 11.3 °C 1010.4 hPa SW 6.4 km/h 11.3 km/h 77 % 0 mm 0 W/m2
22:21 15.2 °C 11.2 °C 1010.4 hPa SW 8 km/h 14.5 km/h 77 % 0 mm 0 W/m2
22:26 15.2 °C 11.2 °C 1010.4 hPa SW 8 km/h 14.5 km/h 77 % 0 mm 0 W/m2
22:31 15.1 °C 11.3 °C 1010.4 hPa SW 8 km/h 12.9 km/h 78 % 0 mm 0 W/m2
22:36 15.1 °C 11.3 °C 1010.4 hPa SW 6.4 km/h 12.9 km/h 78 % 0 mm 0 W/m2
22:41 15.1 °C 11.3 °C 1010.4 hPa SW 4.8 km/h 9.7 km/h 78 % 0 mm 0 W/m2
22:46 15.1 °C 11.3 °C 1010.4 hPa SW 4.8 km/h 9.7 km/h 78 % 0 mm 0 W/m2
22:51 15.1 °C 11.3 °C 1010.4 hPa SW 6.4 km/h 11.3 km/h 78 % 0 mm 0 W/m2
22:56 15.1 °C 11.3 °C 1010.4 hPa SW 6.4 km/h 11.3 km/h 78 % 0 mm 0 W/m2
23:01 15 °C 11.2 °C 1010.4 hPa SW 4.8 km/h 9.7 km/h 78 % 0 mm 0 W/m2
23:06 15 °C 11.4 °C 1010.4 hPa SW 3.2 km/h 8 km/h 79 % 0 mm 0 W/m2
23:11 14.9 °C 11.3 °C 1010.4 hPa SW 3.2 km/h 8 km/h 79 % 0 mm 0 W/m2
23:16 15 °C 11.2 °C 1010.4 hPa SW 4.8 km/h 12.9 km/h 78 % 0 mm 0 W/m2
23:21 15 °C 11.2 °C 1010.4 hPa SW 8 km/h 12.9 km/h 78 % 0 mm 0 W/m2
23:26 15 °C 11.2 °C 1010.4 hPa SW 8 km/h 12.9 km/h 78 % 0 mm 0 W/m2
23:31 14.9 °C 10.9 °C 1010.4 hPa SW 9.7 km/h 16.1 km/h 77 % 0 mm 0 W/m2
23:36 14.9 °C 10.9 °C 1010.4 hPa SW 9.7 km/h 16.1 km/h 77 % 0 mm 0 W/m2
23:41 14.9 °C 10.9 °C 1010.4 hPa SW 8 km/h 14.5 km/h 77 % 0 mm 0 W/m2
23:46 14.9 °C 10.9 °C 1010.4 hPa SW 6.4 km/h 14.5 km/h 77 % 0 mm 0 W/m2
23:51 14.9 °C 10.7 °C 1010.7 hPa SW 4.8 km/h 12.9 km/h 76 % 0 mm 0 W/m2
23:57 14.8 °C 10.6 °C 1010.7 hPa SW 6.4 km/h 11.3 km/h 76 % 0 mm 0 W/m2
Delerius-Weather
Compliments of Weather Underground - 2.25 mb

Data updates at regular intervals.